Terminal Aerodrome Forecast
Issued by NWS

Home | Current Version | Previous Version | Text Only | Print | Product List | Glossary On
Versions: 1 2 3 4 5 6 7 8 9 10 11 12 13 14 15 16 17 18 19 20 21 22 23 24 25
000
FTUS45 KABQ 311100 RRA
TAFLVS
TAF
KLVS 311151Z 3112/0112 23008KT P6SM VCFG BKN007 OVC020
      TEMPO 3112/3114 OVC003
     FM311500 19009KT P6SM BKN010 BKN040
     FM311700 19012KT P6SM SCT025 BKN050
     FM312300 19012G20KT P6SM VCTS BKN050CB
     FM010300 15009KT P6SM VCSH SCT025 OVC050=

USA.gov is the U.S. government's official web portal to all federal, state and local government web resources and services.